Main page


Airports :

Euro, Netherlands

Oil platform

latitude: 51-59-52N, longitude: 3-16-30E, elevation: 18 m

Current weather observation

The report was made 14 minutes ago, at 17:25 UTC
Wind 16 kt from the North
Temperature 5°C
Humidity 75%
Pressure 1028 hPa
Visibility 10 km or more

METAR: EHSA 201725Z AUTO 35016KT 9999 ///////// 05/01 Q1028 W04/H17

Time: 18:39 (17:39 UTC)

TAF: missing

Weather observations and forecasts of more than 4000 airports (METAR and TAF reports).

The available stations are represented by yellow and red dots on the map.

Hover mouse over dot to see the name of the station.

Then click to see weather observations and forecasts.

To change the map : click on the green buttons with a black cross to zoom in, on the green button with a dash to zoom out, or on the green arrows for adjacent maps.